Metar z połowy godziny Komunikat METAR ze strony awiacja.imgw.pl Metar G30 EPDA METAR EPDA 170900Z 16007KT 120V230 CAVOK 26/14 Q1016 RMK 257 049 0/0 =